Time;durP1;ratioP1;P1;durP2;ratioP2;P2;SDS_P1;SDS_P2;PMS_P1;PMS_P2;Temp;Humidity;BMP_temperature;BMP_pressure;BME280_temperature;BME280_humidity;BME280_pressure;Samples;Min_cycle;Max_cycle;Signal;HPM_P1;HPM_P2
2023/02/06 00:00:46;;;;;;;11.63;5.38;;;;;;;0.03;56.41;101239.66;6158817;23;20017;-80
2023/02/06 00:03:12;;;;;;;13.13;6.00;;;;;;;0.10;56.31;101249.44;6156414;23;20017;-79
2023/02/06 00:05:40;;;;;;;10.32;5.30;;;;;;;-0.01;56.34;101242.84;6183342;23;20363;-80
2023/02/06 00:08:06;;;;;;;10.65;5.85;;;;;;;0.06;57.32;101262.88;6133010;23;20021;-80
2023/02/06 00:10:33;;;;;;;11.13;5.53;;;;;;;0.06;57.24;101268.00;6157088;23;20017;-80
2023/02/06 00:12:59;;;;;;;10.43;5.93;;;;;;;-0.29;56.09;101214.78;6157933;23;20017;-79
2023/02/06 00:15:25;;;;;;;10.48;6.03;;;;;;;-0.11;56.77;101243.09;6157081;23;20350;-80
2023/02/06 00:17:51;;;;;;;13.50;6.00;;;;;;;-0.09;56.80;101241.53;6157769;23;20074;-79
2023/02/06 00:20:17;;;;;;;10.48;5.75;;;;;;;0.07;56.48;101253.53;6132434;23;20048;-78
2023/02/06 00:22:43;;;;;;;11.32;5.18;;;;;;;0.06;56.52;101250.06;6160405;23;20447;-78
2023/02/06 00:25:09;;;;;;;10.45;5.53;;;;;;;0.12;55.60;101260.66;6160747;23;20096;-78
2023/02/06 00:27:35;;;;;;;11.63;5.93;;;;;;;0.06;56.85;101252.63;6188020;23;20044;-79
2023/02/06 00:30:01;;;;;;;10.00;5.10;;;;;;;-0.16;56.31;101230.91;6166328;23;20355;-80
2023/02/06 00:32:29;;;;;;;13.07;6.20;;;;;;;0.11;56.10;101270.84;6162396;23;20459;-79
2023/02/06 00:34:55;;;;;;;11.60;6.20;;;;;;;0.11;56.08;101268.28;6160488;23;20363;-79
2023/02/06 00:37:21;;;;;;;10.07;5.43;;;;;;;0.07;56.12;101254.41;6159584;23;20023;-80
2023/02/06 00:39:47;;;;;;;10.93;5.68;;;;;;;0.02;55.98;101260.06;6158659;23;20028;-79
2023/02/06 00:42:15;;;;;;;12.30;5.60;;;;;;;-0.19;55.84;101246.09;6159159;23;20087;-79
2023/02/06 00:44:41;;;;;;;10.95;5.85;;;;;;;-0.05;56.05;101259.69;6159690;23;20417;-79
2023/02/06 00:47:07;;;;;;;11.43;5.70;;;;;;;-0.23;56.40;101223.72;6187768;23;20100;-79
2023/02/06 00:49:33;;;;;;;12.60;5.93;;;;;;;-0.09;55.86;101237.28;6160098;23;20059;-79
2023/02/06 00:51:59;;;;;;;10.82;5.95;;;;;;;-0.09;56.05;101247.50;6185971;23;20021;-79
2023/02/06 00:54:25;;;;;;;12.48;6.25;;;;;;;-0.19;55.79;101220.50;6160593;23;20861;-79
2023/02/06 00:56:52;;;;;;;10.88;5.68;;;;;;;-0.09;55.29;101265.41;6135137;23;20463;-80
2023/02/06 00:59:18;;;;;;;12.00;5.57;;;;;;;-0.24;56.24;101226.16;6134335;23;20115;-78
2023/02/06 01:01:44;;;;;;;10.77;5.55;;;;;;;-0.01;56.01;101269.31;6186148;23;20025;-80
2023/02/06 01:04:10;;;;;;;12.52;5.78;;;;;;;-0.09;55.14;101251.75;6185583;23;20071;-79
2023/02/06 01:06:37;;;;;;;10.90;5.75;;;;;;;-0.21;55.78;101221.22;6185648;23;20450;-79
2023/02/06 01:09:03;;;;;;;10.05;5.65;;;;;;;-0.06;55.71;101241.69;6160987;23;20020;-80
2023/02/06 01:11:29;;;;;;;12.48;6.35;;;;;;;-0.27;55.15;101208.06;6136138;23;20073;-78
2023/02/06 01:13:57;;;;;;;11.48;5.70;;;;;;;-0.01;55.78;101251.41;6161681;23;20020;-79
2023/02/06 01:16:24;;;;;;;12.75;6.32;;;;;;;0.14;55.26;101265.84;6161475;23;20017;-79
2023/02/06 01:18:52;;;;;;;11.48;5.60;;;;;;;0.03;54.99;101247.31;6112293;23;20108;-79
2023/02/06 01:21:22;;;;;;;13.20;6.57;;;;;;;0.15;55.41;101262.50;6160546;23;20017;-80
2023/02/06 01:23:49;;;;;;;12.90;5.95;;;;;;;-0.05;55.10;101228.97;6134551;23;20017;-79
2023/02/06 01:26:18;;;;;;;12.80;5.90;;;;;;;0.14;55.01;101263.31;6158175;23;20021;-78
2023/02/06 01:28:46;;;;;;;11.82;5.90;;;;;;;0.01;54.72;101248.06;6134746;23;20213;-80
2023/02/06 01:31:18;;;;;;;12.52;6.97;;;;;;;0.01;54.57;101264.28;6159472;23;20046;-79
2023/02/06 01:33:45;;;;;;;14.30;6.78;;;;;;;-0.22;54.77;101227.13;6158763;23;20024;-80
2023/02/06 01:36:12;;;;;;;12.07;6.18;;;;;;;0.12;55.58;101262.31;6133531;23;20017;-78
2023/02/06 01:38:38;;;;;;;12.15;6.93;;;;;;;-0.06;54.75;101232.34;6187837;23;20049;-79
2023/02/06 01:41:06;;;;;;;12.65;6.03;;;;;;;0.06;54.75;101269.69;6187155;23;20481;-78
2023/02/06 01:43:37;;;;;;;10.30;5.90;;;;;;;-0.05;54.28;101258.81;6162312;23;20017;-80
2023/02/06 01:46:04;;;;;;;10.73;5.60;;;;;;;-0.03;54.91;101253.00;6140333;23;20024;-79
2023/02/06 01:48:49;;;;;;;10.32;5.68;;;;;;;0.06;54.57;101268.00;6161125;23;20085;-79
2023/02/06 01:51:22;;;;;;;11.90;5.82;;;;;;;-0.05;54.83;101261.38;6160867;23;20021;-79
2023/02/06 01:53:52;;;;;;;10.93;6.70;;;;;;;-0.38;54.93;101223.69;6157620;23;20083;-78
2023/02/06 01:56:20;;;;;;;12.73;5.70;;;;;;;-0.07;54.53;101274.06;6185261;23;20031;-78
2023/02/06 01:58:52;;;;;;;10.45;5.97;;;;;;;-0.15;54.91;101252.28;6134855;23;20036;-81
2023/02/06 02:01:19;;;;;;;10.07;5.10;;;;;;;-0.09;54.53;101275.66;6135642;23;20013;-81
2023/02/06 02:03:49;;;;;;;9.60;5.07;;;;;;;-0.28;54.65;101247.25;6161696;23;20017;-80
2023/02/06 02:06:19;;;;;;;10.20;5.45;;;;;;;-0.19;55.19;101253.78;6165678;23;20456;-80
2023/02/06 02:08:49;;;;;;;12.63;5.97;;;;;;;-0.22;54.36;101258.72;6174183;23;20032;-79
2023/02/06 02:11:37;;;;;;;11.93;5.78;;;;;;;-0.10;54.78;101276.44;6155739;23;20032;-79
2023/02/06 02:14:06;;;;;;;12.30;5.93;;;;;;;-0.13;54.37;101276.31;6158354;23;20009;-79
2023/02/06 02:16:58;;;;;;;11.32;5.47;;;;;;;-0.05;54.26;101281.88;6188769;23;20081;-81
2023/02/06 02:19:50;;;;;;;11.93;6.30;;;;;;;-0.05;54.35;101287.84;6183604;23;20025;-79
2023/02/06 02:22:31;;;;;;;9.38;5.38;;;;;;;-0.07;54.71;101279.19;6182571;23;20020;-79
2023/02/06 02:25:03;;;;;;;11.88;5.97;;;;;;;-0.15;54.66;101283.00;6158832;23;20069;-77
2023/02/06 02:27:50;;;;;;;;;;;;;;;-0.15;54.05;101283.00;6159981;23;20083;-81
2023/02/06 02:30:38;;;;;;;12.93;5.82;;;;;;;-0.19;54.61;101292.16;6138578;23;19919;-79
2023/02/06 02:33:44;;;;;;;10.48;5.60;;;;;;;-0.17;54.13;101295.69;6136703;23;20009;-79
2023/02/06 02:36:29;;;;;;;10.15;5.38;;;;;;;-0.18;54.11;101285.38;6187379;23;20021;-79
2023/02/06 02:39:14;;;;;;;9.55;4.95;;;;;;;-0.23;54.01;101287.69;6162690;23;20081;-80
2023/02/06 02:41:59;;;;;;;11.60;6.25;;;;;;;-0.34;54.17;101279.38;6138127;23;20065;-79
2023/02/06 02:45:15;;;;;;;9.88;5.55;;;;;;;-0.25;54.16;101293.47;6169147;23;20025;-81
2023/02/06 02:48:04;;;;;;;10.65;5.05;;;;;;;-0.28;54.86;101299.31;6104419;23;20488;-79
2023/02/06 02:50:32;;;;;;;8.30;5.20;;;;;;;-0.21;54.72;101292.88;6089246;23;20029;-79
2023/02/06 02:53:01;;;;;;;12.48;6.07;;;;;;;-0.18;54.10;101286.25;6112907;23;20414;-78
2023/02/06 02:55:27;;;;;;;9.98;5.13;;;;;;;-0.32;54.49;101254.72;6183466;23;19997;-80
2023/02/06 02:58:06;;;;;;;8.25;4.95;;;;;;;-0.34;54.02;101265.69;6156059;23;20080;-80
2023/02/06 03:00:38;;;;;;;7.97;4.50;;;;;;;-0.43;53.96;101273.69;6147586;23;20059;-80
2023/02/06 03:03:09;;;;;;;9.32;5.07;;;;;;;-0.41;53.73;101284.91;6131371;23;20040;-79
2023/02/06 03:05:44;;;;;;;10.00;5.10;;;;;;;-0.30;54.02;101303.44;6152124;23;20044;-79
2023/02/06 03:08:32;;;;;;;10.13;5.32;;;;;;;-0.24;54.42;101300.38;6176409;23;20072;-79
2023/02/06 03:11:12;;;;;;;9.55;5.03;;;;;;;-0.18;54.48;101306.72;6168971;23;20040;-79
2023/02/06 03:13:50;;;;;;;9.13;5.22;;;;;;;-0.13;53.77;101307.00;6138652;23;20016;-80
2023/02/06 03:16:25;;;;;;;8.82;5.15;;;;;;;-0.14;53.84;101296.66;6137928;23;20023;-79
2023/02/06 03:18:56;;;;;;;8.30;5.15;;;;;;;-0.01;54.24;101311.97;6161541;23;20359;-79
2023/02/06 03:21:25;;;;;;;9.13;4.80;;;;;;;-0.08;53.94;101295.34;6163735;23;20055;-79
2023/02/06 03:23:57;;;;;;;9.40;5.00;;;;;;;-0.09;53.75;101313.19;6135173;23;20199;-77
2023/02/06 03:26:27;;;;;;;9.52;5.00;;;;;;;-0.21;54.28;101295.44;6159617;23;20017;-79
2023/02/06 03:28:59;;;;;;;9.38;5.07;;;;;;;-0.20;54.39;101290.38;6185162;23;20339;-77
2023/02/06 03:31:34;;;;;;;9.13;4.72;;;;;;;-0.28;54.38;101283.97;6160113;23;20021;-82
2023/02/06 03:34:06;;;;;;;9.43;5.32;;;;;;;-0.53;53.98;101235.56;6159014;23;20122;-79
2023/02/06 03:36:32;;;;;;;10.40;5.28;;;;;;;-0.63;53.83;101221.34;6161044;23;20017;-79
2023/02/06 03:38:59;;;;;;;9.40;5.38;;;;;;;-0.13;54.20;101295.88;6139255;23;20016;-80
2023/02/06 03:41:34;;;;;;;8.43;4.70;;;;;;;-0.38;53.73;101273.97;6160326;23;20714;-79
2023/02/06 03:44:05;;;;;;;8.27;4.90;;;;;;;-0.20;53.75;101300.63;6135799;23;20023;-77
2023/02/06 03:46:35;;;;;;;8.80;4.88;;;;;;;-0.18;53.87;101305.84;6160640;23;20016;-78
2023/02/06 03:49:06;;;;;;;9.30;4.90;;;;;;;-0.14;54.06;101310.38;6136733;23;20028;-80
2023/02/06 03:51:44;;;;;;;8.32;4.85;;;;;;;-0.38;53.37;101268.84;6160966;23;20067;-79
2023/02/06 03:54:16;;;;;;;8.57;4.75;;;;;;;-0.14;53.77;101314.59;6135815;23;20040;-79
2023/02/06 03:56:54;;;;;;;8.95;5.15;;;;;;;-0.19;54.02;101297.28;6138478;23;20375;-81
2023/02/06 03:59:20;;;;;;;8.93;5.18;;;;;;;-0.20;53.45;101299.75;6168070;23;20016;-79
2023/02/06 04:01:50;;;;;;;8.90;5.40;;;;;;;-0.15;53.66;101306.03;6144979;23;20405;-81
2023/02/06 04:04:19;;;;;;;8.82;4.95;;;;;;;-0.21;53.06;101315.91;6167975;23;20394;-80
2023/02/06 04:06:45;;;;;;;8.77;5.07;;;;;;;-0.31;53.95;101322.16;6192302;23;20044;-81
2023/02/06 04:09:11;;;;;;;6.55;4.25;;;;;;;-0.43;53.37;101303.50;6163259;23;20027;-80
2023/02/06 04:11:39;;;;;;;7.25;4.15;;;;;;;-0.31;54.02;101317.91;6162091;23;20027;-78
2023/02/06 04:14:05;;;;;;;9.15;4.72;;;;;;;-0.50;53.95;101280.13;6167983;23;20382;-80
2023/02/06 04:16:32;;;;;;;8.68;5.10;;;;;;;-0.32;53.69;101321.25;6140776;23;20045;-79
2023/02/06 04:18:57;;;;;;;9.27;4.93;;;;;;;-0.42;53.38;101307.81;6166253;23;20013;-80
2023/02/06 04:21:23;;;;;;;9.57;5.47;;;;;;;-0.53;54.25;101282.50;6161012;23;20023;-80
2023/02/06 04:23:49;;;;;;;9.25;5.40;;;;;;;-0.51;53.29;101308.16;6112580;23;20467;-79
2023/02/06 04:26:15;;;;;;;8.20;4.85;;;;;;;-0.44;53.94;101323.09;6160461;23;20136;-80
2023/02/06 04:28:41;;;;;;;7.70;4.60;;;;;;;-0.45;53.18;101329.00;6161220;23;20021;-79
2023/02/06 04:31:07;;;;;;;9.43;4.72;;;;;;;-0.63;53.41;101293.84;6136724;23;20026;-80
2023/02/06 04:33:33;;;;;;;9.10;5.15;;;;;;;-0.46;54.05;101311.88;6136273;23;20025;-80
2023/02/06 04:35:59;;;;;;;9.50;5.63;;;;;;;-0.46;53.49;101310.22;6187134;23;20032;-79
2023/02/06 04:38:27;;;;;;;9.90;5.20;;;;;;;-0.53;53.66;101276.47;6187399;23;20033;-81
2023/02/06 04:40:53;;;;;;;9.52;5.00;;;;;;;-0.28;53.98;101324.91;6163717;23;20021;-81
2023/02/06 04:43:19;;;;;;;7.25;4.60;;;;;;;-0.37;53.53;101325.22;6187571;23;20017;-79
2023/02/06 04:45:45;;;;;;;10.68;5.97;;;;;;;-0.52;54.23;101311.50;6161768;23;20473;-80
2023/02/06 04:48:11;;;;;;;7.75;5.05;;;;;;;-0.59;53.81;101297.47;6137012;23;20017;-81
2023/02/06 04:50:37;;;;;;;8.48;5.18;;;;;;;-0.42;54.00;101318.94;6163507;23;20031;-79
2023/02/06 04:53:03;;;;;;;10.07;5.00;;;;;;;-0.38;53.70;101325.13;6162684;23;20017;-81
2023/02/06 04:55:31;;;;;;;8.77;5.03;;;;;;;-0.50;53.75;101298.03;6161971;23;20009;-80
2023/02/06 04:57:57;;;;;;;10.25;5.25;;;;;;;-0.31;54.06;101334.94;6186190;23;20577;-79
2023/02/06 05:00:23;;;;;;;10.35;5.03;;;;;;;-0.44;53.87;101335.88;6161475;23;20059;-80
2023/02/06 05:02:49;;;;;;;9.43;4.70;;;;;;;-0.52;53.93;101306.38;6136182;23;20021;-80
2023/02/06 05:05:15;;;;;;;9.40;5.25;;;;;;;-0.57;53.71;101295.88;6160838;23;20017;-78
2023/02/06 05:07:41;;;;;;;10.18;5.78;;;;;;;-0.33;53.20;101344.19;6135620;23;20016;-80
2023/02/06 05:10:08;;;;;;;11.98;6.10;;;;;;;-0.62;54.08;101294.72;6162710;23;20067;-80
2023/02/06 05:12:35;;;;;;;9.13;5.32;;;;;;;-0.46;53.89;101309.31;6163442;23;20064;-79
2023/02/06 05:15:01;;;;;;;9.30;4.85;;;;;;;-0.50;53.47;101305.69;6164083;23;20013;-81
2023/02/06 05:17:28;;;;;;;9.45;5.57;;;;;;;-0.20;54.00;101345.81;6190477;23;20041;-80
2023/02/06 05:19:55;;;;;;;10.60;5.88;;;;;;;-0.19;53.26;101350.16;6139204;23;20450;-79
2023/02/06 05:22:21;;;;;;;12.93;6.68;;;;;;;-0.51;53.23;101286.03;6190057;23;20041;-79
2023/02/06 05:24:47;;;;;;;9.73;6.00;;;;;;;-0.09;54.25;101344.75;6162790;23;20037;-81
2023/02/06 05:27:13;;;;;;;10.27;6.00;;;;;;;-0.14;53.50;101341.06;6163886;23;20016;-80
2023/02/06 05:29:39;;;;;;;11.52;6.68;;;;;;;-0.11;53.46;101338.66;6165223;23;20493;-80
2023/02/06 05:32:05;;;;;;;9.85;5.85;;;;;;;-0.09;52.94;101337.09;6166645;23;20028;-80
2023/02/06 05:34:31;;;;;;;12.73;6.40;;;;;;;-0.26;53.53;101317.28;6123675;23;20017;-79
2023/02/06 05:36:57;;;;;;;9.60;5.63;;;;;;;-0.05;53.41;101340.72;6170473;23;20017;-79
2023/02/06 05:39:24;;;;;;;12.68;6.00;;;;;;;-0.04;53.69;101347.63;6196677;23;20017;-79
2023/02/06 05:41:50;;;;;;;9.75;5.40;;;;;;;-0.28;53.52;101293.28;6170924;23;20028;-79
2023/02/06 05:44:16;;;;;;;8.10;4.68;;;;;;;0.05;53.52;101337.91;6120074;23;20370;-80
2023/02/06 05:46:43;;;;;;;7.47;4.72;;;;;;;-0.08;52.79;101331.16;6169293;23;20122;-81
2023/02/06 05:49:09;;;;;;;9.02;4.55;;;;;;;-0.24;52.76;101308.94;6188860;23;20013;-79
2023/02/06 05:51:34;;;;;;;6.85;4.45;;;;;;;-0.25;52.66;101319.06;6187292;23;20051;-80
2023/02/06 05:54:01;;;;;;;10.02;4.38;;;;;;;-0.29;52.88;101312.00;6161793;23;20096;-79
2023/02/06 05:56:27;;;;;;;8.07;4.95;;;;;;;-0.07;53.19;101345.75;6185286;23;20017;-82
2023/02/06 05:58:53;;;;;;;8.88;5.05;;;;;;;-0.44;53.29;101289.84;6136035;23;20067;-79
2023/02/06 06:01:19;;;;;;;9.27;4.93;;;;;;;-0.08;52.65;101350.78;6188579;23;20048;-80
2023/02/06 06:03:45;;;;;;;7.97;4.57;;;;;;;-0.17;52.77;101333.22;6189625;23;20025;-79
2023/02/06 06:06:11;;;;;;;8.15;4.57;;;;;;;-0.18;53.59;101342.53;6190329;23;20023;-79
2023/02/06 06:08:37;;;;;;;8.65;4.57;;;;;;;-0.22;53.09;101335.47;6167750;23;20016;-80
2023/02/06 06:11:03;;;;;;;8.80;5.03;;;;;;;-0.28;52.64;101326.56;6119135;23;20017;-79
2023/02/06 06:13:29;;;;;;;6.95;4.30;;;;;;;-0.20;53.46;101341.56;6167694;23;20111;-80
2023/02/06 06:15:58;;;;;;;7.43;4.30;;;;;;;-0.35;52.84;101318.53;6145576;23;20023;-79
2023/02/06 06:18:25;;;;;;;8.77;4.53;;;;;;;-0.21;52.85;101346.59;6169693;23;20081;-78
2023/02/06 06:20:52;;;;;;;7.88;4.68;;;;;;;-0.16;52.72;101355.44;6142480;23;20020;-78
2023/02/06 06:23:18;;;;;;;7.25;4.60;;;;;;;-0.14;53.29;101360.66;6197207;23;20111;-78
2023/02/06 06:25:47;;;;;;;7.90;4.32;;;;;;;-0.31;52.75;101343.47;6144975;23;20466;-80
2023/02/06 06:28:13;;;;;;;10.48;5.00;;;;;;;-0.22;53.43;101363.63;6193870;23;20020;-80
2023/02/06 06:30:41;;;;;;;8.60;4.90;;;;;;;-0.28;53.15;101352.13;6167382;23;20017;-80
2023/02/06 06:33:10;;;;;;;9.70;4.93;;;;;;;-0.14;53.25;101369.22;6115051;23;20020;-82
2023/02/06 06:35:39;;;;;;;10.30;5.32;;;;;;;-0.28;53.06;101336.78;6145438;23;20013;-80
2023/02/06 06:38:06;;;;;;;7.80;4.80;;;;;;;-0.04;52.93;101361.28;6167258;23;20047;-80
2023/02/06 06:40:32;;;;;;;8.60;4.97;;;;;;;-0.24;53.59;101315.72;6191399;23;20017;-79
2023/02/06 06:43:03;;;;;;;8.95;5.07;;;;;;;0.03;53.17;101359.09;6190647;23;20043;-78
2023/02/06 06:45:35;;;;;;;9.35;5.45;;;;;;;-0.52;53.17;101257.78;6117798;23;20024;-79
2023/02/06 06:48:01;;;;;;;9.63;5.40;;;;;;;-0.20;52.77;101317.66;6165422;23;20021;-79
2023/02/06 06:50:27;;;;;;;9.80;5.75;;;;;;;0.09;52.45;101370.56;6171218;23;20143;-79
2023/02/06 06:52:56;;;;;;;10.57;5.82;;;;;;;0.01;53.42;101345.31;6162982;23;20016;-80
2023/02/06 06:55:22;;;;;;;9.95;5.60;;;;;;;0.05;52.83;101363.50;6187577;23;20013;-80
2023/02/06 06:57:48;;;;;;;11.20;5.53;;;;;;;-0.14;52.94;101332.50;6192385;23;20024;-79
2023/02/06 07:00:15;;;;;;;10.63;5.88;;;;;;;0.16;53.16;101376.06;6121183;23;20017;-81
2023/02/06 07:02:42;;;;;;;9.95;4.47;;;;;;;-0.09;52.84;101339.63;6167967;23;20017;-80
2023/02/06 07:05:10;;;;;;;8.77;5.50;;;;;;;-0.91;52.62;101192.47;6193907;23;20039;-81
2023/02/06 07:07:39;;;;;;;8.73;5.20;;;;;;;0.16;53.12;101378.63;6169777;23;20122;-83
2023/02/06 07:10:06;;;;;;;9.90;5.50;;;;;;;0.27;53.24;101375.88;6168833;23;20027;-79
2023/02/06 07:12:33;;;;;;;9.85;5.68;;;;;;;0.23;52.85;101368.81;6168804;23;20107;-80
2023/02/06 07:15:02;;;;;;;9.15;5.32;;;;;;;-0.09;53.38;101303.81;6141287;23;20100;-79
2023/02/06 07:17:31;;;;;;;9.00;5.57;;;;;;;-0.18;53.28;101309.28;6144389;23;20017;-81
2023/02/06 07:20:00;;;;;;;11.15;5.93;;;;;;;0.22;53.15;101376.44;6169116;23;20017;-79
2023/02/06 07:22:27;;;;;;;9.68;4.90;;;;;;;0.16;53.36;101370.94;6119149;23;20016;-76
2023/02/06 07:24:53;;;;;;;9.80;5.00;;;;;;;0.15;52.96;101364.91;6143061;23;20023;-79
2023/02/06 07:27:19;;;;;;;9.55;5.50;;;;;;;-0.15;52.54;101308.59;6164836;23;20021;-80
2023/02/06 07:29:50;;;;;;;11.52;4.72;;;;;;;0.13;52.95;101358.81;6143921;23;20020;-79
2023/02/06 07:32:19;;;;;;;8.15;5.13;;;;;;;0.04;52.71;101351.50;6141864;23;20017;-80
2023/02/06 07:34:45;;;;;;;8.30;5.13;;;;;;;0.25;52.79;101377.47;6146150;23;20016;-81
2023/02/06 07:37:20;;;;;;;9.70;5.80;;;;;;;0.33;52.54;101375.34;6147943;23;20021;-80
2023/02/06 07:39:46;;;;;;;12.13;5.88;;;;;;;0.10;52.13;101333.06;6195749;23;20021;-82
2023/02/06 07:42:15;;;;;;;8.38;5.15;;;;;;;0.43;52.29;101379.34;6120197;23;20055;-79
2023/02/06 07:45:02;;;;;;;8.57;5.40;;;;;;;0.10;52.35;101341.63;6142559;23;20501;-79
2023/02/06 07:47:28;;;;;;;8.50;5.05;;;;;;;0.21;52.62;101355.03;6147051;23;20048;-81
2023/02/06 07:49:54;;;;;;;11.10;6.03;;;;;;;0.44;52.40;101389.66;6196214;23;20195;-78
2023/02/06 07:52:47;;;;;;;8.52;5.65;;;;;;;-0.04;52.48;101312.66;6145655;23;20017;-80
2023/02/06 07:55:42;;;;;;;;;;;;;;;;;;;;;
2023/02/06 07:58:47;;;;;;;8.07;4.78;;;;;;;-0.15;52.23;101298.34;6154589;23;20094;-79
2023/02/06 08:01:21;;;;;;;8.05;5.03;;;;;;;-0.28;52.13;101286.53;6168094;23;20023;-79
2023/02/06 08:03:53;;;;;;;10.90;5.30;;;;;;;0.34;51.09;101396.72;6143436;23;20024;-79
2023/02/06 08:06:21;;;;;;;10.60;5.40;;;;;;;0.02;52.25;101335.16;6201306;23;20028;-79
2023/02/06 08:08:51;;;;;;;8.98;5.40;;;;;;;0.29;52.50;101378.53;6164441;23;20017;-79
2023/02/06 08:11:19;;;;;;;7.90;4.78;;;;;;;0.15;51.58;101380.28;6136074;23;20496;-80
2023/02/06 08:13:46;;;;;;;9.27;5.22;;;;;;;0.29;52.17;101392.22;6189728;23;20044;-80
2023/02/06 08:16:23;;;;;;;9.07;4.82;;;;;;;0.19;51.85;101366.00;6164567;23;20104;-79
2023/02/06 08:18:50;;;;;;;9.27;5.28;;;;;;;-0.02;52.18;101326.41;6161275;23;20023;-80
2023/02/06 08:21:26;;;;;;;12.18;6.88;;;;;;;0.20;51.67;101349.84;6163899;23;20103;-80
2023/02/06 08:23:59;;;;;;;10.70;5.57;;;;;;;-0.21;51.84;101282.63;6120426;23;20075;-79
2023/02/06 08:26:28;;;;;;;11.05;5.15;;;;;;;0.44;51.61;101388.78;6195144;23;20024;-80
2023/02/06 08:28:56;;;;;;;10.02;5.30;;;;;;;0.51;51.81;101390.91;6164277;23;20017;-81
2023/02/06 08:31:28;;;;;;;8.82;4.97;;;;;;;0.39;51.72;101360.34;6142530;23;20024;-81
2023/02/06 08:33:56;;;;;;;8.40;5.20;;;;;;;0.56;51.80;101389.47;6094464;23;20021;-79
2023/02/06 08:36:24;;;;;;;9.27;5.18;;;;;;;0.58;51.80;101392.16;6192035;23;20162;-81
2023/02/06 08:38:52;;;;;;;7.28;4.93;;;;;;;0.45;51.06;101386.28;6191368;23;20048;-79
2023/02/06 08:41:20;;;;;;;7.53;4.60;;;;;;;0.47;51.75;101388.06;6138787;23;20494;-78
2023/02/06 08:43:48;;;;;;;8.75;5.13;;;;;;;0.24;51.50;101342.41;6137720;23;20079;-80
2023/02/06 08:46:18;;;;;;;10.27;5.18;;;;;;;0.41;51.84;101368.13;6139277;23;20041;-78
2023/02/06 08:48:45;;;;;;;8.15;4.95;;;;;;;0.44;51.56;101370.84;6137783;23;20013;-80
2023/02/06 08:51:12;;;;;;;8.90;5.45;;;;;;;0.41;51.54;101363.00;6189466;23;20020;-80
2023/02/06 08:53:38;;;;;;;11.10;5.45;;;;;;;0.52;51.10;101371.28;6137294;23;20021;-79
2023/02/06 08:56:08;;;;;;;9.77;5.20;;;;;;;0.59;51.08;101374.28;6141105;23;20016;-80
2023/02/06 08:58:35;;;;;;;9.25;5.40;;;;;;;0.68;51.16;101379.03;6196527;23;20017;-81
2023/02/06 09:01:12;;;;;;;7.95;5.10;;;;;;;0.65;51.21;101367.75;6168738;23;20076;-79
2023/02/06 09:03:40;;;;;;;11.52;5.35;;;;;;;0.72;51.24;101390.38;6171175;23;20405;-78
2023/02/06 09:06:10;;;;;;;8.43;5.07;;;;;;;0.72;50.65;101383.56;6174866;23;20016;-79
2023/02/06 09:08:37;;;;;;;9.45;5.38;;;;;;;0.58;50.79;101363.97;6199550;23;20016;-80
2023/02/06 09:11:06;;;;;;;9.80;5.13;;;;;;;0.63;51.28;101367.69;6196517;23;20040;-78
2023/02/06 09:13:33;;;;;;;11.13;5.97;;;;;;;0.62;50.91;101357.31;6142529;23;20037;-80
2023/02/06 09:15:59;;;;;;;10.63;6.00;;;;;;;0.40;50.86;101317.69;6114501;23;20043;-80
2023/02/06 09:18:27;;;;;;;9.68;5.32;;;;;;;0.80;50.76;101381.41;6190517;23;20044;-79
2023/02/06 09:21:04;;;;;;;10.18;5.80;;;;;;;0.81;50.42;101384.88;6162535;23;20485;-81
2023/02/06 09:23:30;;;;;;;8.95;5.38;;;;;;;0.68;50.60;101362.81;6168858;23;20017;-80
2023/02/06 09:25:56;;;;;;;8.90;5.00;;;;;;;0.65;50.05;101354.94;6163701;23;20065;-80
2023/02/06 09:28:22;;;;;;;9.25;5.30;;;;;;;0.51;50.43;101360.16;6164142;23;20028;-80
2023/02/06 09:30:51;;;;;;;10.70;5.82;;;;;;;0.69;50.47;101385.94;6167354;23;20023;-81
2023/02/06 09:33:20;;;;;;;;;;;;;;;0.80;50.96;101383.09;6167818;23;20105;-81
2023/02/06 09:35:47;;;;;;;9.20;5.47;;;;;;;0.90;50.41;101386.28;6115982;23;19912;-80
2023/02/06 09:38:15;;;;;;;10.07;5.50;;;;;;;0.98;50.37;101408.91;6142067;23;20021;-80
2023/02/06 09:40:42;;;;;;;10.45;6.05;;;;;;;0.26;50.66;101274.25;6192137;23;20052;-81
2023/02/06 09:43:10;;;;;;;9.15;5.65;;;;;;;0.69;50.24;101359.44;6169385;23;20045;-80
2023/02/06 09:45:38;;;;;;;13.88;5.75;;;;;;;0.51;50.20;101349.03;6189876;23;20021;-80
2023/02/06 09:48:21;;;;;;;9.02;5.63;;;;;;;0.69;50.45;101378.25;6165167;23;20013;-81
2023/02/06 09:51:02;;;;;;;10.30;5.88;;;;;;;0.58;50.57;101371.66;6140280;23;20021;-80
2023/02/06 09:53:50;;;;;;;8.10;5.20;;;;;;;0.65;50.29;101384.03;6165592;23;20017;-79
2023/02/06 09:56:50;;;;;;;10.25;5.85;;;;;;;0.68;50.67;101383.28;6190350;23;20009;-80
2023/02/06 09:59:28;;;;;;;9.35;5.60;;;;;;;0.78;50.75;101385.56;6137021;23;20025;-81
2023/02/06 10:02:29;;;;;;;9.60;6.25;;;;;;;0.83;50.43;101379.03;6138919;23;20071;-79
2023/02/06 10:05:21;;;;;;;9.75;5.75;;;;;;;0.64;50.50;101348.03;6153201;23;20028;-79
2023/02/06 10:08:08;;;;;;;9.57;5.70;;;;;;;0.70;50.17;101386.84;6113809;23;20416;-79
2023/02/06 10:10:39;;;;;;;10.48;6.30;;;;;;;0.59;49.66;101375.97;6161701;23;20023;-79
2023/02/06 10:13:18;;;;;;;10.75;6.50;;;;;;;0.59;50.66;101363.16;6186553;23;20140;-81
2023/02/06 10:15:47;;;;;;;13.23;7.55;;;;;;;0.48;49.91;101336.03;6162147;23;20013;-80
2023/02/06 10:18:45;;;;;;;13.60;7.20;;;;;;;0.51;49.38;101378.09;6135711;23;20016;-80
2023/02/06 10:21:31;;;;;;;14.00;7.55;;;;;;;0.08;49.50;101307.34;6106701;23;20454;-80
2023/02/06 10:24:09;;;;;;;12.88;7.97;;;;;;;0.65;49.91;101403.63;6134530;23;20020;-80
2023/02/06 10:26:38;;;;;;;13.82;8.68;;;;;;;0.75;49.81;101399.09;6137225;23;20031;-80
2023/02/06 10:29:33;;;;;;;13.50;7.53;;;;;;;-0.08;50.09;101240.72;6162166;23;20017;-80
2023/02/06 10:32:10;;;;;;;11.77;6.72;;;;;;;0.92;49.67;101395.72;6137314;23;20017;-80
2023/02/06 10:35:01;;;;;;;9.88;6.13;;;;;;;0.94;49.91;101396.69;6162358;23;20099;-80
2023/02/06 10:37:46;;;;;;;10.68;6.70;;;;;;;0.92;49.87;101398.28;6166269;23;20017;-80
2023/02/06 10:40:30;;;;;;;9.82;6.72;;;;;;;0.66;50.18;101357.59;6194033;23;20040;-80
2023/02/06 10:43:24;;;;;;;10.25;6.50;;;;;;;0.97;50.19;101399.44;6146923;23;20016;-81
2023/02/06 10:46:21;;;;;;;11.23;6.47;;;;;;;0.95;49.68;101377.97;6176360;23;20016;-80
2023/02/06 10:49:35;;;;;;;9.65;6.30;;;;;;;1.06;49.71;101392.25;6195541;23;20080;-79
2023/02/06 10:52:20;;;;;;;11.30;7.05;;;;;;;1.01;50.01;101393.66;6152694;23;20086;-81
2023/02/06 10:55:32;;;;;;;10.38;6.72;;;;;;;0.99;49.30;101390.16;6161367;23;20021;-80
2023/02/06 10:58:10;;;;;;;13.35;7.05;;;;;;;1.01;49.65;101393.66;6164439;23;20021;-80
2023/02/06 11:00:38;;;;;;;9.02;6.40;;;;;;;0.97;48.93;101391.75;6137231;23;20048;-80
2023/02/06 11:03:11;;;;;;;13.27;7.10;;;;;;;0.95;49.12;101390.78;6189947;23;20017;-81
2023/02/06 11:05:37;;;;;;;12.57;6.97;;;;;;;0.67;49.34;101361.03;6187019;23;20336;-82
2023/02/06 11:08:24;;;;;;;12.18;7.07;;;;;;;0.85;49.50;101391.94;6160831;23;20027;-81
2023/02/06 11:10:51;;;;;;;14.05;8.38;;;;;;;0.85;49.12;101390.25;6162167;23;20028;-78
2023/02/06 11:13:21;;;;;;;14.63;7.10;;;;;;;0.56;48.86;101358.72;6186836;23;20084;-80
2023/02/06 11:16:05;;;;;;;12.40;7.25;;;;;;;0.80;49.23;101393.34;6158705;23;20096;-82
2023/02/06 11:18:42;;;;;;;12.93;7.57;;;;;;;0.77;49.43;101382.94;6136656;23;20021;-80
2023/02/06 11:21:11;;;;;;;17.95;8.65;;;;;;;0.81;49.93;101385.75;6159430;23;20020;-79
2023/02/06 11:23:41;;;;;;;15.02;9.15;;;;;;;0.77;48.88;101394.09;6161872;23;20020;-82
2023/02/06 11:26:22;;;;;;;17.60;8.07;;;;;;;0.42;49.11;101349.38;6113406;23;20017;-77
2023/02/06 11:28:51;;;;;;;14.75;7.70;;;;;;;0.45;49.15;101385.44;6184241;23;20028;-78
2023/02/06 11:31:40;;;;;;;15.40;7.75;;;;;;;0.34;49.20;101366.88;6159083;23;20013;-80
2023/02/06 11:34:36;;;;;;;12.55;7.70;;;;;;;0.24;49.18;101362.91;6183195;23;20362;-80
2023/02/06 11:37:25;;;;;;;16.55;8.40;;;;;;;0.36;49.55;101380.66;6159503;23;20016;-80
2023/02/06 11:40:23;;;;;;;17.23;9.57;;;;;;;0.16;49.78;101355.56;6184465;23;20107;-79
2023/02/06 11:43:15;;;;;;;12.57;7.75;;;;;;;-0.16;49.42;101296.59;6159426;23;20016;-80
2023/02/06 11:45:41;;;;;;;12.35;7.05;;;;;;;-0.03;48.83;101342.56;6039497;23;20056;-80
2023/02/06 11:48:30;;;;;;;11.10;6.03;;;;;;;0.08;49.01;101384.16;6185880;23;20046;-80